sensor_id;sensor_type;location;lat;lon;timestamp;pressure;altitude;pressure_sealevel;temperature;humidity
21100;BME280;10708;50.824;4.408;2023-02-02T00:04:35;101425.72;;;8.51;100.00
21100;BME280;10708;50.824;4.408;2023-02-02T00:09:39;101433.75;;;8.39;100.00
21100;BME280;10708;50.824;4.408;2023-02-02T00:14:41;101434.59;;;8.44;100.00
21100;BME280;10708;50.824;4.408;2023-02-02T00:19:44;101436.38;;;8.40;100.00
21100;BME280;10708;50.824;4.408;2023-02-02T00:24:48;101430.09;;;8.52;100.00
21100;BME280;10708;50.824;4.408;2023-02-02T00:29:50;101437.25;;;8.39;100.00
21100;BME280;10708;50.824;4.408;2023-02-02T00:34:53;101438.97;;;8.42;100.00
21100;BME280;10708;50.824;4.408;2023-02-02T00:39:57;101435.47;;;8.41;100.00
21100;BME280;10708;50.824;4.408;2023-02-02T00:44:59;101425.09;;;8.34;100.00
21100;BME280;10708;50.824;4.408;2023-02-02T00:50:16;101424.22;;;8.33;100.00
21100;BME280;10708;50.824;4.408;2023-02-02T00:55:21;101418.00;;;8.40;100.00
21100;BME280;10708;50.824;4.408;2023-02-02T01:00:25;101420.72;;;8.34;100.00
21100;BME280;10708;50.824;4.408;2023-02-02T01:05:27;101424.94;;;8.46;100.00
21100;BME280;10708;50.824;4.408;2023-02-02T01:10:31;101429.47;;;8.30;100.00
21100;BME280;10708;50.824;4.408;2023-02-02T01:15:33;101416.34;;;8.33;100.00
21100;BME280;10708;50.824;4.408;2023-02-02T01:20:36;101425.06;;;8.37;100.00
21100;BME280;10708;50.824;4.408;2023-02-02T01:25:39;101432.09;;;8.33;100.00
21100;BME280;10708;50.824;4.408;2023-02-02T01:30:41;101417.09;;;8.43;100.00
21100;BME280;10708;50.824;4.408;2023-02-02T01:35:45;101419.69;;;8.46;100.00
21100;BME280;10708;50.824;4.408;2023-02-02T01:40:51;101420.59;;;8.42;100.00
21100;BME280;10708;50.824;4.408;2023-02-02T01:45:55;101440.81;;;8.37;100.00
21100;BME280;10708;50.824;4.408;2023-02-02T01:51:00;101438.22;;;8.31;100.00
21100;BME280;10708;50.824;4.408;2023-02-02T01:56:09;101439.06;;;8.36;100.00
21100;BME280;10708;50.824;4.408;2023-02-02T02:01:13;101436.47;;;8.33;100.00
21100;BME280;10708;50.824;4.408;2023-02-02T02:06:17;101434.72;;;8.29;100.00
21100;BME280;10708;50.824;4.408;2023-02-02T02:11:22;101433.72;;;8.42;100.00
21100;BME280;10708;50.824;4.408;2023-02-02T02:16:35;101428.56;;;8.37;100.00
21100;BME280;10708;50.824;4.408;2023-02-02T02:21:49;101426.75;;;8.41;100.00
21100;BME280;10708;50.824;4.408;2023-02-02T02:33:14;101434.81;;;8.24;100.00
21100;BME280;10708;50.824;4.408;2023-02-02T02:38:27;101438.31;;;8.23;100.00
21100;BME280;10708;50.824;4.408;2023-02-02T02:43:33;101432.94;;;8.35;100.00
21100;BME280;10708;50.824;4.408;2023-02-02T02:48:42;101438.28;;;8.25;100.00
21100;BME280;10708;50.824;4.408;2023-02-02T02:53:45;101430.44;;;8.23;100.00
21100;BME280;10708;50.824;4.408;2023-02-02T02:58:53;101446.22;;;8.19;100.00
21100;BME280;10708;50.824;4.408;2023-02-02T03:04:07;101443.53;;;8.28;100.00
21100;BME280;10708;50.824;4.408;2023-02-02T03:09:20;101455.72;;;8.33;100.00
21100;BME280;10708;50.824;4.408;2023-02-02T03:14:24;101452.34;;;8.19;100.00
21100;BME280;10708;50.824;4.408;2023-02-02T03:19:27;101442.66;;;8.27;100.00
21100;BME280;10708;50.824;4.408;2023-02-02T03:24:30;101446.22;;;8.20;100.00
21100;BME280;10708;50.824;4.408;2023-02-02T03:29:32;101447.06;;;8.24;100.00
21100;BME280;10708;50.824;4.408;2023-02-02T03:34:36;101453.09;;;8.33;100.00
21100;BME280;10708;50.824;4.408;2023-02-02T03:39:38;101452.34;;;8.19;100.00
21100;BME280;10708;50.824;4.408;2023-02-02T03:44:40;101447.84;;;8.32;100.00
21100;BME280;10708;50.824;4.408;2023-02-02T03:49:44;101465.34;;;8.33;100.00
21100;BME280;10708;50.824;4.408;2023-02-02T03:54:46;101458.41;;;8.27;100.00
21100;BME280;10708;50.824;4.408;2023-02-02T03:59:48;101445.22;;;8.32;100.00
21100;BME280;10708;50.824;4.408;2023-02-02T04:04:52;101458.50;;;8.18;100.00
21100;BME280;10708;50.824;4.408;2023-02-02T04:09:55;101472.41;;;8.25;100.00
21100;BME280;10708;50.824;4.408;2023-02-02T04:14:57;101478.50;;;8.28;100.00
21100;BME280;10708;50.824;4.408;2023-02-02T04:20:01;101481.97;;;8.29;100.00
21100;BME280;10708;50.824;4.408;2023-02-02T04:25:04;101490.78;;;8.23;100.00
21100;BME280;10708;50.824;4.408;2023-02-02T04:30:07;101492.50;;;8.27;100.00
21100;BME280;10708;50.824;4.408;2023-02-02T04:35:11;101498.75;;;8.15;100.00
21100;BME280;10708;50.824;4.408;2023-02-02T04:40:14;101500.44;;;8.20;100.00
21100;BME280;10708;50.824;4.408;2023-02-02T04:45:16;101510.91;;;8.26;100.00
21100;BME280;10708;50.824;4.408;2023-02-02T04:50:20;101503.06;;;8.21;100.00
21100;BME280;10708;50.824;4.408;2023-02-02T04:55:23;101501.28;;;8.23;100.00
21100;BME280;10708;50.824;4.408;2023-02-02T05:00:25;101503.94;;;8.20;100.00
21100;BME280;10708;50.824;4.408;2023-02-02T05:05:29;101504.03;;;8.14;100.00
21100;BME280;10708;50.824;4.408;2023-02-02T05:10:31;101511.13;;;8.03;100.00
21100;BME280;10708;50.824;4.408;2023-02-02T05:15:33;101504.16;;;8.00;100.00
21100;BME280;10708;50.824;4.408;2023-02-02T05:20:37;101497.38;;;7.79;100.00
21100;BME280;10708;50.824;4.408;2023-02-02T05:25:40;101497.47;;;7.69;100.00
21100;BME280;10708;50.824;4.408;2023-02-02T05:30:42;101497.56;;;7.60;100.00
21100;BME280;10708;50.824;4.408;2023-02-02T05:35:46;101493.31;;;7.48;100.00
21100;BME280;10708;50.824;4.408;2023-02-02T05:40:49;101481.91;;;7.49;100.00
21100;BME280;10708;50.824;4.408;2023-02-02T05:45:51;101487.22;;;7.45;100.00
21100;BME280;10708;50.824;4.408;2023-02-02T05:50:59;101491.66;;;7.38;100.00
21100;BME280;10708;50.824;4.408;2023-02-02T05:56:04;101498.56;;;7.48;100.00
21100;BME280;10708;50.824;4.408;2023-02-02T06:01:06;101497.69;;;7.45;100.00
21100;BME280;10708;50.824;4.408;2023-02-02T06:06:11;101507.31;;;7.43;100.00
21100;BME280;10708;50.824;4.408;2023-02-02T06:11:15;101511.66;;;7.45;100.00
21100;BME280;10708;50.824;4.408;2023-02-02T06:16:19;101515.25;;;7.36;100.00
21100;BME280;10708;50.824;4.408;2023-02-02T06:21:23;101513.44;;;7.40;100.00
21100;BME280;10708;50.824;4.408;2023-02-02T06:26:25;101518.75;;;7.34;100.00
21100;BME280;10708;50.824;4.408;2023-02-02T06:31:28;101518.69;;;7.40;100.00
21100;BME280;10708;50.824;4.408;2023-02-02T06:36:31;101523.09;;;7.35;100.00
21100;BME280;10708;50.824;4.408;2023-02-02T06:41:34;101537.06;;;7.37;100.00
21100;BME280;10708;50.824;4.408;2023-02-02T06:46:36;101540.53;;;7.40;100.00
21100;BME280;10708;50.824;4.408;2023-02-02T06:51:40;101531.84;;;7.37;100.00
21100;BME280;10708;50.824;4.408;2023-02-02T06:56:42;101530.97;;;7.38;100.00
21100;BME280;10708;50.824;4.408;2023-02-02T07:01:47;101536.19;;;7.38;100.00
21100;BME280;10708;50.824;4.408;2023-02-02T07:06:51;101547.50;;;7.41;100.00
21100;BME280;10708;50.824;4.408;2023-02-02T07:11:54;101545.81;;;7.36;100.00
21100;BME280;10708;50.824;4.408;2023-02-02T07:16:56;101543.22;;;7.30;100.00
21100;BME280;10708;50.824;4.408;2023-02-02T07:22:00;101555.44;;;7.29;100.00
21100;BME280;10708;50.824;4.408;2023-02-02T07:27:03;101550.19;;;7.34;100.00
21100;BME280;10708;50.824;4.408;2023-02-02T07:32:05;101564.16;;;7.36;100.00
21100;BME280;10708;50.824;4.408;2023-02-02T07:37:09;101568.53;;;7.38;100.00
21100;BME280;10708;50.824;4.408;2023-02-02T07:42:11;101566.72;;;7.42;100.00
21100;BME280;10708;50.824;4.408;2023-02-02T07:47:14;101552.72;;;7.48;100.00
21100;BME280;10708;50.824;4.408;2023-02-02T07:52:18;101562.28;;;7.52;100.00
21100;BME280;10708;50.824;4.408;2023-02-02T07:57:20;101573.63;;;7.55;100.00
21100;BME280;10708;50.824;4.408;2023-02-02T08:02:23;101572.69;;;7.61;100.00
21100;BME280;10708;50.824;4.408;2023-02-02T08:07:27;101563.94;;;7.65;100.00
21100;BME280;10708;50.824;4.408;2023-02-02T08:12:32;101562.13;;;7.70;100.00
21100;BME280;10708;50.824;4.408;2023-02-02T08:17:34;101564.75;;;7.74;100.00
21100;BME280;10708;50.824;4.408;2023-02-02T08:22:38;101566.47;;;7.78;100.00
21100;BME280;10708;50.824;4.408;2023-02-02T08:27:40;101583.00;;;7.84;100.00
21100;BME280;10708;50.824;4.408;2023-02-02T08:32:43;101585.56;;;7.91;100.00
21100;BME280;10708;50.824;4.408;2023-02-02T08:37:48;101584.66;;;7.97;100.00
21100;BME280;10708;50.824;4.408;2023-02-02T08:42:52;101580.22;;;8.05;100.00
21100;BME280;10708;50.824;4.408;2023-02-02T08:47:55;101588.03;;;8.09;100.00
21100;BME280;10708;50.824;4.408;2023-02-02T08:52:59;101602.16;;;7.95;100.00
21100;BME280;10708;50.824;4.408;2023-02-02T08:58:01;101609.06;;;8.08;100.00
21100;BME280;10708;50.824;4.408;2023-02-02T09:03:05;101606.34;;;8.14;100.00
21100;BME280;10708;50.824;4.408;2023-02-02T09:08:09;101622.13;;;8.12;100.00
21100;BME280;10708;50.824;4.408;2023-02-02T09:13:11;101626.44;;;8.18;100.00
21100;BME280;10708;50.824;4.408;2023-02-02T09:18:14;101637.69;;;8.29;100.00
21100;BME280;10708;50.824;4.408;2023-02-02T09:23:17;101626.22;;;8.45;100.00
21100;BME280;10708;50.824;4.408;2023-02-02T09:28:21;101651.41;;;8.62;100.00
21100;BME280;10708;50.824;4.408;2023-02-02T09:33:23;101657.63;;;8.55;100.00
21100;BME280;10708;50.824;4.408;2023-02-02T09:38:27;101657.50;;;8.65;100.00
21100;BME280;10708;50.824;4.408;2023-02-02T09:43:42;101672.09;;;8.92;100.00
21100;BME280;10708;50.824;4.408;2023-02-02T09:48:55;101689.50;;;9.02;100.00
21100;BME280;10708;50.824;4.408;2023-02-02T09:54:03;101689.50;;;9.02;100.00
21100;BME280;10708;50.824;4.408;2023-02-02T09:59:12;101688.53;;;9.09;100.00
21100;BME280;10708;50.824;4.408;2023-02-02T10:04:21;101687.41;;;9.30;100.00
21100;BME280;10708;50.824;4.408;2023-02-02T10:09:32;101693.34;;;9.44;100.00
21100;BME280;10708;50.824;4.408;2023-02-02T10:14:40;101694.03;;;9.58;100.00
21100;BME280;10708;50.824;4.408;2023-02-02T10:19:47;101692.47;;;9.45;100.00
21100;BME280;10708;50.824;4.408;2023-02-02T10:24:53;101691.38;;;9.58;100.00
21100;BME280;10708;50.824;4.408;2023-02-02T10:29:59;101699.38;;;9.54;100.00
21100;BME280;10708;50.824;4.408;2023-02-02T10:35:14;101713.66;;;9.32;100.00
21100;BME280;10708;50.824;4.408;2023-02-02T10:40:33;101713.91;;;9.79;100.00
21100;BME280;10708;50.824;4.408;2023-02-02T10:45:41;101723.91;;;9.53;100.00
21100;BME280;10708;50.824;4.408;2023-02-02T10:50:47;101720.69;;;9.95;100.00
21100;BME280;10708;50.824;4.408;2023-02-02T10:55:55;101732.19;;;9.88;100.00
21100;BME280;10708;50.824;4.408;2023-02-02T11:00:58;101717.94;;;10.03;100.00
21100;BME280;10708;50.824;4.408;2023-02-02T11:06:05;101703.78;;;10.10;100.00
21100;BME280;10708;50.824;4.408;2023-02-02T11:11:30;101712.69;;;10.02;100.00
21100;BME280;10708;50.824;4.408;2023-02-02T11:16:35;101708.44;;;9.94;100.00
21100;BME280;10708;50.824;4.408;2023-02-02T11:21:38;101706.69;;;9.93;100.00
21100;BME280;10708;50.824;4.408;2023-02-02T11:26:45;101710.06;;;10.02;100.00
21100;BME280;10708;50.824;4.408;2023-02-02T11:31:49;101694.84;;;9.65;100.00
21100;BME280;10708;50.824;4.408;2023-02-02T11:37:11;101682.31;;;9.79;100.00
21100;BME280;10708;50.824;4.408;2023-02-02T11:42:16;101693.56;;;9.92;100.00
21100;BME280;10708;50.824;4.408;2023-02-02T11:47:29;101694.06;;;10.15;100.00
21100;BME280;10708;50.824;4.408;2023-02-02T11:52:33;101680.59;;;10.37;100.00
21100;BME280;10708;50.824;4.408;2023-02-02T11:57:37;101688.56;;;10.30;100.00
21100;BME280;10708;50.824;4.408;2023-02-02T12:02:44;101686.22;;;10.12;100.00
21100;BME280;10708;50.824;4.408;2023-02-02T12:07:47;101702.41;;;9.88;100.00
21100;BME280;10708;50.824;4.408;2023-02-02T12:12:57;101688.84;;;10.12;100.00
21100;BME280;10708;50.824;4.408;2023-02-02T12:18:09;101690.69;;;10.07;100.00
21100;BME280;10708;50.824;4.408;2023-02-02T12:23:27;101673.63;;;10.32;100.00
21100;BME280;10708;50.824;4.408;2023-02-02T12:28:58;101670.13;;;10.32;100.00
21100;BME280;10708;50.824;4.408;2023-02-02T12:34:13;101663.56;;;10.56;100.00
21100;BME280;10708;50.824;4.408;2023-02-02T12:39:26;101655.56;;;10.60;100.00
21100;BME280;10708;50.824;4.408;2023-02-02T12:44:40;101661.50;;;10.71;100.00
21100;BME280;10708;50.824;4.408;2023-02-02T12:50:02;101655.66;;;10.56;100.00
21100;BME280;10708;50.824;4.408;2023-02-02T12:55:23;101663.78;;;10.42;100.00
21100;BME280;10708;50.824;4.408;2023-02-02T13:06:43;101645.31;;;10.45;100.00
21100;BME280;10708;50.824;4.408;2023-02-02T13:11:52;101644.41;;;10.46;100.00
21100;BME280;10708;50.824;4.408;2023-02-02T13:16:58;101650.41;;;10.54;100.00
21100;BME280;10708;50.824;4.408;2023-02-02T13:22:09;101646.88;;;10.55;100.00
21100;BME280;10708;50.824;4.408;2023-02-02T13:27:17;101657.47;;;10.52;100.00
21100;BME280;10708;50.824;4.408;2023-02-02T13:32:27;101648.44;;;10.65;100.00
21100;BME280;10708;50.824;4.408;2023-02-02T13:37:35;101646.88;;;10.57;100.00
21100;BME280;10708;50.824;4.408;2023-02-02T13:42:44;101645.19;;;10.51;100.00
21100;BME280;10708;50.824;4.408;2023-02-02T13:47:53;101638.69;;;10.69;100.00
21100;BME280;10708;50.824;4.408;2023-02-02T13:53:18;101639.28;;;10.85;100.00
21100;BME280;10708;50.824;4.408;2023-02-02T13:58:53;101628.50;;;10.97;100.00
21100;BME280;10708;50.824;4.408;2023-02-02T14:04:00;101619.88;;;10.89;100.00
21100;BME280;10708;50.824;4.408;2023-02-02T14:09:05;101617.81;;;11.03;100.00
21100;BME280;10708;50.824;4.408;2023-02-02T14:14:12;101622.38;;;10.95;100.00
21100;BME280;10708;50.824;4.408;2023-02-02T14:19:52;101626.13;;;10.85;100.00
21100;BME280;10708;50.824;4.408;2023-02-02T14:24:57;101626.78;;;10.96;100.00
21100;BME280;10708;50.824;4.408;2023-02-02T14:29:59;101621.09;;;10.71;100.00
21100;BME280;10708;50.824;4.408;2023-02-02T14:40:44;101642.75;;;10.41;100.00
21100;BME280;10708;50.824;4.408;2023-02-02T14:45:48;101650.47;;;10.51;100.00
21100;BME280;10708;50.824;4.408;2023-02-02T14:51:15;101655.06;;;10.39;100.00
21100;BME280;10708;50.824;4.408;2023-02-02T14:56:21;101666.53;;;10.38;100.00
21100;BME280;10708;50.824;4.408;2023-02-02T15:01:39;101671.00;;;10.32;100.00
21100;BME280;10708;50.824;4.408;2023-02-02T15:06:43;101680.00;;;10.16;100.00
21100;BME280;10708;50.824;4.408;2023-02-02T15:12:15;101681.13;;;10.00;100.00
21100;BME280;10708;50.824;4.408;2023-02-02T15:17:24;101677.53;;;10.07;100.00
21100;BME280;10708;50.824;4.408;2023-02-02T15:22:31;101680.00;;;10.16;100.00
21100;BME280;10708;50.824;4.408;2023-02-02T15:27:37;101696.09;;;9.98;100.00
21100;BME280;10708;50.824;4.408;2023-02-02T15:32:40;101704.94;;;9.92;100.00
21100;BME280;10708;50.824;4.408;2023-02-02T15:37:50;101702.94;;;10.08;100.00
21100;BME280;10708;50.824;4.408;2023-02-02T15:42:58;101715.97;;;10.17;100.00
21100;BME280;10708;50.824;4.408;2023-02-02T15:48:05;101718.63;;;10.16;100.00
21100;BME280;10708;50.824;4.408;2023-02-02T15:53:15;101708.94;;;10.19;100.00
21100;BME280;10708;50.824;4.408;2023-02-02T15:58:23;101719.41;;;10.24;100.00
21100;BME280;10708;50.824;4.408;2023-02-02T16:03:33;101717.72;;;10.20;100.00
21100;BME280;10708;50.824;4.408;2023-02-02T16:08:39;101722.16;;;10.18;100.00
21100;BME280;10708;50.824;4.408;2023-02-02T16:13:52;101719.56;;;10.10;100.00
21100;BME280;10708;50.824;4.408;2023-02-02T16:19:02;101726.03;;;9.91;100.00
21100;BME280;10708;50.824;4.408;2023-02-02T16:24:10;101725.22;;;9.87;100.00
21100;BME280;10708;50.824;4.408;2023-02-02T16:29:15;101732.97;;;9.96;100.00
21100;BME280;10708;50.824;4.408;2023-02-02T16:34:42;101740.94;;;9.90;100.00
21100;BME280;10708;50.824;4.408;2023-02-02T16:40:41;101750.66;;;9.87;100.00
21100;BME280;10708;50.824;4.408;2023-02-02T16:45:45;101754.22;;;9.83;100.00
21100;BME280;10708;50.824;4.408;2023-02-02T16:51:05;101755.03;;;9.86;100.00
21100;BME280;10708;50.824;4.408;2023-02-02T16:56:22;101764.72;;;9.83;100.00
21100;BME280;10708;50.824;4.408;2023-02-02T17:01:33;101764.69;;;9.87;100.00
21100;BME280;10708;50.824;4.408;2023-02-02T17:06:37;101757.72;;;9.83;100.00
21100;BME280;10708;50.824;4.408;2023-02-02T17:11:54;101770.13;;;9.72;100.00
21100;BME280;10708;50.824;4.408;2023-02-02T17:16:56;101770.09;;;9.75;100.00
21100;BME280;10708;50.824;4.408;2023-02-02T17:22:00;101770.16;;;9.69;100.00
21100;BME280;10708;50.824;4.408;2023-02-02T17:27:11;101775.69;;;9.49;100.00
21100;BME280;10708;50.824;4.408;2023-02-02T17:32:15;101777.41;;;9.53;100.00
21100;BME280;10708;50.824;4.408;2023-02-02T17:37:17;101771.34;;;9.47;100.00
21100;BME280;10708;50.824;4.408;2023-02-02T17:42:24;101781.06;;;9.39;100.00
21100;BME280;10708;50.824;4.408;2023-02-02T17:47:26;101780.28;;;9.31;100.00
21100;BME280;10708;50.824;4.408;2023-02-02T17:52:29;101778.72;;;9.16;100.00
21100;BME280;10708;50.824;4.408;2023-02-02T17:57:33;101777.81;;;9.17;100.00
21100;BME280;10708;50.824;4.408;2023-02-02T18:02:36;101781.28;;;9.20;100.00
21100;BME280;10708;50.824;4.408;2023-02-02T18:07:39;101784.78;;;9.19;100.00
21100;BME280;10708;50.824;4.408;2023-02-02T18:12:42;101777.66;;;9.29;100.00
21100;BME280;10708;50.824;4.408;2023-02-02T18:17:46;101781.13;;;9.36;100.00
21100;BME280;10708;50.824;4.408;2023-02-02T18:22:50;101774.03;;;9.39;100.00
21100;BME280;10708;50.824;4.408;2023-02-02T18:27:54;101777.50;;;9.46;100.00
21100;BME280;10708;50.824;4.408;2023-02-02T18:32:57;101773.94;;;9.48;100.00
21100;BME280;10708;50.824;4.408;2023-02-02T18:37:59;101772.34;;;9.35;100.00
21100;BME280;10708;50.824;4.408;2023-02-02T18:43:04;101781.03;;;9.42;100.00
21100;BME280;10708;50.824;4.408;2023-02-02T18:48:07;101781.81;;;9.50;100.00
21100;BME280;10708;50.824;4.408;2023-02-02T18:53:09;101774.78;;;9.52;100.00
21100;BME280;10708;50.824;4.408;2023-02-02T18:58:13;101773.84;;;9.57;100.00
21100;BME280;10708;50.824;4.408;2023-02-02T19:03:15;101785.38;;;9.47;100.00
21100;BME280;10708;50.824;4.408;2023-02-02T19:08:18;101783.53;;;9.52;100.00
21100;BME280;10708;50.824;4.408;2023-02-02T19:13:22;101786.16;;;9.52;100.00
21100;BME280;10708;50.824;4.408;2023-02-02T19:18:24;101798.44;;;9.53;100.00
21100;BME280;10708;50.824;4.408;2023-02-02T19:23:29;101792.28;;;9.53;100.00
21100;BME280;10708;50.824;4.408;2023-02-02T19:28:34;101788.81;;;9.49;100.00
21100;BME280;10708;50.824;4.408;2023-02-02T19:33:38;101796.81;;;9.42;100.00
21100;BME280;10708;50.824;4.408;2023-02-02T19:38:41;101790.59;;;9.49;100.00
21100;BME280;10708;50.824;4.408;2023-02-02T19:43:45;101779.16;;;9.53;100.00
21100;BME280;10708;50.824;4.408;2023-02-02T19:48:51;101775.59;;;9.57;100.00
21100;BME280;10708;50.824;4.408;2023-02-02T19:53:58;101783.53;;;9.52;100.00
21100;BME280;10708;50.824;4.408;2023-02-02T19:59:03;101769.63;;;9.44;100.00
21100;BME280;10708;50.824;4.408;2023-02-02T20:04:12;101767.72;;;9.55;100.00
21100;BME280;10708;50.824;4.408;2023-02-02T20:09:16;101763.38;;;9.53;100.00
21100;BME280;10708;50.824;4.408;2023-02-02T20:14:26;101770.34;;;9.55;100.00
21100;BME280;10708;50.824;4.408;2023-02-02T20:19:35;101780.13;;;9.46;100.00
21100;BME280;10708;50.824;4.408;2023-02-02T20:24:41;101783.56;;;9.51;100.00
21100;BME280;10708;50.824;4.408;2023-02-02T20:29:47;101780.91;;;9.52;100.00
21100;BME280;10708;50.824;4.408;2023-02-02T20:34:50;101781.78;;;9.54;100.00
21100;BME280;10708;50.824;4.408;2023-02-02T20:39:55;101791.44;;;9.52;100.00
21100;BME280;10708;50.824;4.408;2023-02-02T20:44:59;101789.69;;;9.50;100.00
21100;BME280;10708;50.824;4.408;2023-02-02T20:50:01;101792.28;;;9.53;100.00
21100;BME280;10708;50.824;4.408;2023-02-02T20:55:04;101798.41;;;9.55;100.00
21100;BME280;10708;50.824;4.408;2023-02-02T21:00:12;101795.81;;;9.53;100.00
21100;BME280;10708;50.824;4.408;2023-02-02T21:05:15;101806.34;;;9.52;100.00
21100;BME280;10708;50.824;4.408;2023-02-02T21:10:18;101811.66;;;9.47;100.00
21100;BME280;10708;50.824;4.408;2023-02-02T21:15:22;101817.69;;;9.55;100.00
21100;BME280;10708;50.824;4.408;2023-02-02T21:20:26;101823.88;;;9.51;100.00
21100;BME280;10708;50.824;4.408;2023-02-02T21:25:28;101815.00;;;9.58;100.00
21100;BME280;10708;50.824;4.408;2023-02-02T21:30:32;101821.16;;;9.59;100.00
21100;BME280;10708;50.824;4.408;2023-02-02T21:35:34;101823.09;;;9.43;100.00
21100;BME280;10708;50.824;4.408;2023-02-02T21:40:36;101822.19;;;9.46;100.00
21100;BME280;10708;50.824;4.408;2023-02-02T21:45:42;101821.25;;;9.51;100.00
21100;BME280;10708;50.824;4.408;2023-02-02T21:50:45;101815.09;;;9.51;100.00
21100;BME280;10708;50.824;4.408;2023-02-02T21:55:51;101809.81;;;9.54;100.00
21100;BME280;10708;50.824;4.408;2023-02-02T22:00:57;101816.84;;;9.53;100.00
21100;BME280;10708;50.824;4.408;2023-02-02T22:06:22;101830.84;;;9.55;100.00
21100;BME280;10708;50.824;4.408;2023-02-02T22:11:26;101837.00;;;9.54;100.00
21100;BME280;10708;50.824;4.408;2023-02-02T22:16:37;101829.09;;;9.56;100.00
21100;BME280;10708;50.824;4.408;2023-02-02T22:21:42;101816.81;;;9.55;100.00
21100;BME280;10708;50.824;4.408;2023-02-02T22:26:44;101819.44;;;9.56;100.00
21100;BME280;10708;50.824;4.408;2023-02-02T22:31:49;101826.47;;;9.56;100.00
21100;BME280;10708;50.824;4.408;2023-02-02T22:36:52;101839.66;;;9.50;100.00
21100;BME280;10708;50.824;4.408;2023-02-02T22:41:54;101843.16;;;9.52;100.00
21100;BME280;10708;50.824;4.408;2023-02-02T22:46:58;101844.00;;;9.54;100.00
21100;BME280;10708;50.824;4.408;2023-02-02T22:52:00;101844.03;;;9.51;100.00
21100;BME280;10708;50.824;4.408;2023-02-02T22:57:02;101836.16;;;9.49;100.00
21100;BME280;10708;50.824;4.408;2023-02-02T23:02:06;101847.50;;;9.54;100.00
21100;BME280;10708;50.824;4.408;2023-02-02T23:07:08;101854.56;;;9.49;100.00
21100;BME280;10708;50.824;4.408;2023-02-02T23:12:11;101858.91;;;9.53;100.00
21100;BME280;10708;50.824;4.408;2023-02-02T23:17:14;101844.88;;;9.56;100.00
21100;BME280;10708;50.824;4.408;2023-02-02T23:22:17;101820.25;;;9.60;100.00
21100;BME280;10708;50.824;4.408;2023-02-02T23:27:19;101812.31;;;9.65;100.00
21100;BME280;10708;50.824;4.408;2023-02-02T23:32:23;101811.50;;;9.59;100.00
21100;BME280;10708;50.824;4.408;2023-02-02T23:37:25;101806.31;;;9.55;100.00
21100;BME280;10708;50.824;4.408;2023-02-02T23:42:28;101794.13;;;9.48;100.00
21100;BME280;10708;50.824;4.408;2023-02-02T23:47:32;101797.66;;;9.45;100.00
21100;BME280;10708;50.824;4.408;2023-02-02T23:52:35;101797.69;;;9.41;100.00
21100;BME280;10708;50.824;4.408;2023-02-02T23:57:38;101784.50;;;9.45;100.00
